sensor_id;sensor_type;location;lat;lon;timestamp;pressure;altitude;pressure_sealevel;temperature;humidity
56070;BME280;41944;52.078;-0.058;2023-08-07T00:00:33;101681.55;;;13.08;99.76
56070;BME280;41944;52.078;-0.058;2023-08-07T00:03:00;101679.76;;;13.14;99.38
56070;BME280;41944;52.078;-0.058;2023-08-07T00:05:27;101678.62;;;13.09;99.46
56070;BME280;41944;52.078;-0.058;2023-08-07T00:07:54;101675.68;;;12.99;99.82
56070;BME280;41944;52.078;-0.058;2023-08-07T00:10:21;101676.71;;;13.00;99.89
56070;BME280;41944;52.078;-0.058;2023-08-07T00:12:47;101677.89;;;12.97;99.10
56070;BME280;41944;52.078;-0.058;2023-08-07T00:15:14;101678.89;;;12.98;98.64
56070;BME280;41944;52.078;-0.058;2023-08-07T00:17:42;101679.23;;;12.96;99.21
56070;BME280;41944;52.078;-0.058;2023-08-07T00:20:09;101681.12;;;12.92;99.75
56070;BME280;41944;52.078;-0.058;2023-08-07T00:22:37;101681.12;;;12.95;99.10
56070;BME280;41944;52.078;-0.058;2023-08-07T00:25:04;101681.78;;;12.87;99.64
56070;BME280;41944;52.078;-0.058;2023-08-07T00:27:32;101675.94;;;12.73;99.93
56070;BME280;41944;52.078;-0.058;2023-08-07T00:29:59;101676.88;;;12.77;100.00
56070;BME280;41944;52.078;-0.058;2023-08-07T00:32:26;101674.08;;;12.70;100.00
56070;BME280;41944;52.078;-0.058;2023-08-07T00:34:53;101674.97;;;12.60;100.00
56070;BME280;41944;52.078;-0.058;2023-08-07T00:37:19;101676.38;;;12.56;100.00
56070;BME280;41944;52.078;-0.058;2023-08-07T00:39:46;101673.12;;;12.58;100.00
56070;BME280;41944;52.078;-0.058;2023-08-07T00:42:13;101670.53;;;12.69;100.00
56070;BME280;41944;52.078;-0.058;2023-08-07T00:44:40;101667.48;;;12.68;99.67
56070;BME280;41944;52.078;-0.058;2023-08-07T00:47:07;101666.92;;;12.67;99.81
56070;BME280;41944;52.078;-0.058;2023-08-07T00:49:35;101663.66;;;12.72;99.03
56070;BME280;41944;52.078;-0.058;2023-08-07T00:52:04;101662.92;;;12.60;99.94
56070;BME280;41944;52.078;-0.058;2023-08-07T00:54:32;101666.96;;;12.61;99.65
56070;BME280;41944;52.078;-0.058;2023-08-07T00:57:06;101667.57;;;12.55;99.99
56070;BME280;41944;52.078;-0.058;2023-08-07T00:59:34;101670.26;;;12.57;99.26
56070;BME280;41944;52.078;-0.058;2023-08-07T01:02:01;101673.70;;;12.49;98.84
56070;BME280;41944;52.078;-0.058;2023-08-07T01:04:29;101672.58;;;12.32;99.77
56070;BME280;41944;52.078;-0.058;2023-08-07T01:06:56;101672.38;;;12.18;100.00
56070;BME280;41944;52.078;-0.058;2023-08-07T01:09:23;101671.46;;;12.21;100.00
56070;BME280;41944;52.078;-0.058;2023-08-07T01:11:57;101673.81;;;12.08;100.00
56070;BME280;41944;52.078;-0.058;2023-08-07T01:14:31;101669.87;;;12.02;100.00
56070;BME280;41944;52.078;-0.058;2023-08-07T01:17:04;101671.28;;;12.00;100.00
56070;BME280;41944;52.078;-0.058;2023-08-07T01:19:34;101668.79;;;11.95;100.00
56070;BME280;41944;52.078;-0.058;2023-08-07T01:22:06;101666.95;;;11.95;100.00
56070;BME280;41944;52.078;-0.058;2023-08-07T01:24:34;101667.62;;;12.01;100.00
56070;BME280;41944;52.078;-0.058;2023-08-07T01:27:21;101668.21;;;11.96;100.00
56070;BME280;41944;52.078;-0.058;2023-08-07T01:29:56;101667.68;;;11.91;100.00
56070;BME280;41944;52.078;-0.058;2023-08-07T01:32:33;101666.14;;;11.91;100.00
56070;BME280;41944;52.078;-0.058;2023-08-07T01:35:03;101662.91;;;11.90;100.00
56070;BME280;41944;52.078;-0.058;2023-08-07T01:37:35;101669.84;;;11.80;100.00
56070;BME280;41944;52.078;-0.058;2023-08-07T01:40:06;101671.18;;;11.73;100.00
56070;BME280;41944;52.078;-0.058;2023-08-07T01:42:35;101667.31;;;11.87;100.00
56070;BME280;41944;52.078;-0.058;2023-08-07T01:45:04;101667.67;;;11.74;100.00
56070;BME280;41944;52.078;-0.058;2023-08-07T01:47:32;101671.37;;;11.66;100.00
56070;BME280;41944;52.078;-0.058;2023-08-07T01:49:58;101671.15;;;11.71;100.00
56070;BME280;41944;52.078;-0.058;2023-08-07T01:52:26;101669.25;;;11.82;100.00
56070;BME280;41944;52.078;-0.058;2023-08-07T01:54:53;101667.67;;;11.90;100.00
56070;BME280;41944;52.078;-0.058;2023-08-07T01:57:20;101668.21;;;12.03;100.00
56070;BME280;41944;52.078;-0.058;2023-08-07T01:59:47;101666.92;;;11.74;100.00
56070;BME280;41944;52.078;-0.058;2023-08-07T02:02:15;101667.14;;;11.62;100.00
56070;BME280;41944;52.078;-0.058;2023-08-07T02:04:42;101667.93;;;11.60;100.00
56070;BME280;41944;52.078;-0.058;2023-08-07T02:07:09;101667.59;;;11.46;100.00
56070;BME280;41944;52.078;-0.058;2023-08-07T02:09:36;101667.11;;;11.35;100.00
56070;BME280;41944;52.078;-0.058;2023-08-07T02:12:04;101664.85;;;11.34;100.00
56070;BME280;41944;52.078;-0.058;2023-08-07T02:14:32;101664.65;;;11.35;100.00
56070;BME280;41944;52.078;-0.058;2023-08-07T02:16:59;101666.27;;;11.38;100.00
56070;BME280;41944;52.078;-0.058;2023-08-07T02:19:25;101667.81;;;11.43;100.00
56070;BME280;41944;52.078;-0.058;2023-08-07T02:21:52;101666.73;;;11.46;100.00
56070;BME280;41944;52.078;-0.058;2023-08-07T02:24:19;101664.92;;;11.44;100.00
56070;BME280;41944;52.078;-0.058;2023-08-07T02:26:46;101666.83;;;11.49;100.00
56070;BME280;41944;52.078;-0.058;2023-08-07T02:29:13;101666.50;;;11.42;100.00
56070;BME280;41944;52.078;-0.058;2023-08-07T02:31:40;101668.36;;;11.42;100.00
56070;BME280;41944;52.078;-0.058;2023-08-07T02:34:07;101669.31;;;11.40;100.00
56070;BME280;41944;52.078;-0.058;2023-08-07T02:36:35;101673.91;;;11.35;100.00
56070;BME280;41944;52.078;-0.058;2023-08-07T02:39:02;101678.99;;;11.24;100.00
56070;BME280;41944;52.078;-0.058;2023-08-07T02:41:29;101677.23;;;11.27;100.00
56070;BME280;41944;52.078;-0.058;2023-08-07T02:43:57;101678.39;;;11.28;100.00
56070;BME280;41944;52.078;-0.058;2023-08-07T02:46:24;101679.84;;;11.36;100.00
56070;BME280;41944;52.078;-0.058;2023-08-07T02:48:51;101684.25;;;11.27;100.00
56070;BME280;41944;52.078;-0.058;2023-08-07T02:51:18;101683.14;;;11.23;100.00
56070;BME280;41944;52.078;-0.058;2023-08-07T02:53:45;101680.09;;;11.13;100.00
56070;BME280;41944;52.078;-0.058;2023-08-07T02:56:11;101681.99;;;11.11;100.00
56070;BME280;41944;52.078;-0.058;2023-08-07T02:58:38;101684.91;;;11.14;100.00
56070;BME280;41944;52.078;-0.058;2023-08-07T03:01:06;101677.40;;;11.26;100.00
56070;BME280;41944;52.078;-0.058;2023-08-07T03:03:33;101679.13;;;11.19;100.00
56070;BME280;41944;52.078;-0.058;2023-08-07T03:06:01;101679.09;;;11.15;100.00
56070;BME280;41944;52.078;-0.058;2023-08-07T03:08:28;101680.18;;;11.11;100.00
56070;BME280;41944;52.078;-0.058;2023-08-07T03:10:57;101680.53;;;11.09;100.00
56070;BME280;41944;52.078;-0.058;2023-08-07T03:13:25;101684.08;;;11.12;100.00
56070;BME280;41944;52.078;-0.058;2023-08-07T03:15:59;101682.60;;;11.16;100.00
56070;BME280;41944;52.078;-0.058;2023-08-07T03:18:26;101681.18;;;11.18;100.00
56070;BME280;41944;52.078;-0.058;2023-08-07T03:20:53;101672.21;;;11.23;100.00
56070;BME280;41944;52.078;-0.058;2023-08-07T03:23:21;101672.49;;;11.26;100.00
56070;BME280;41944;52.078;-0.058;2023-08-07T03:25:48;101670.56;;;11.35;100.00
56070;BME280;41944;52.078;-0.058;2023-08-07T03:28:15;101675.96;;;11.34;100.00
56070;BME280;41944;52.078;-0.058;2023-08-07T03:30:42;101679.48;;;11.26;100.00
56070;BME280;41944;52.078;-0.058;2023-08-07T03:33:09;101680.53;;;11.15;100.00
56070;BME280;41944;52.078;-0.058;2023-08-07T03:35:36;101680.11;;;11.13;100.00
56070;BME280;41944;52.078;-0.058;2023-08-07T03:38:04;101680.26;;;11.05;100.00
56070;BME280;41944;52.078;-0.058;2023-08-07T03:40:31;101680.72;;;11.07;100.00
56070;BME280;41944;52.078;-0.058;2023-08-07T03:42:58;101677.20;;;11.03;100.00
56070;BME280;41944;52.078;-0.058;2023-08-07T03:45:25;101681.77;;;11.08;100.00
56070;BME280;41944;52.078;-0.058;2023-08-07T03:47:52;101678.22;;;11.27;100.00
56070;BME280;41944;52.078;-0.058;2023-08-07T03:50:19;101683.79;;;11.13;100.00
56070;BME280;41944;52.078;-0.058;2023-08-07T03:52:46;101684.48;;;11.14;100.00
56070;BME280;41944;52.078;-0.058;2023-08-07T03:55:13;101684.50;;;11.14;100.00
56070;BME280;41944;52.078;-0.058;2023-08-07T03:57:40;101687.08;;;11.17;100.00
56070;BME280;41944;52.078;-0.058;2023-08-07T04:00:08;101686.97;;;11.06;100.00
56070;BME280;41944;52.078;-0.058;2023-08-07T04:02:36;101685.16;;;11.04;100.00
56070;BME280;41944;52.078;-0.058;2023-08-07T04:05:03;101686.50;;;10.88;100.00
56070;BME280;41944;52.078;-0.058;2023-08-07T04:07:30;101685.66;;;10.91;100.00
56070;BME280;41944;52.078;-0.058;2023-08-07T04:09:57;101687.28;;;11.00;100.00
56070;BME280;41944;52.078;-0.058;2023-08-07T04:12:24;101689.40;;;10.96;100.00
56070;BME280;41944;52.078;-0.058;2023-08-07T04:14:51;101693.95;;;11.09;100.00
56070;BME280;41944;52.078;-0.058;2023-08-07T04:17:18;101691.19;;;11.29;100.00
56070;BME280;41944;52.078;-0.058;2023-08-07T04:19:45;101691.89;;;11.08;100.00
56070;BME280;41944;52.078;-0.058;2023-08-07T04:22:12;101689.67;;;11.04;100.00
56070;BME280;41944;52.078;-0.058;2023-08-07T04:24:39;101691.24;;;11.01;100.00
56070;BME280;41944;52.078;-0.058;2023-08-07T04:27:06;101690.83;;;10.94;100.00
56070;BME280;41944;52.078;-0.058;2023-08-07T04:29:33;101690.16;;;10.85;100.00
56070;BME280;41944;52.078;-0.058;2023-08-07T04:32:00;101686.66;;;10.78;100.00
56070;BME280;41944;52.078;-0.058;2023-08-07T04:34:27;101688.46;;;10.77;100.00
56070;BME280;41944;52.078;-0.058;2023-08-07T04:36:54;101690.55;;;10.73;100.00
56070;BME280;41944;52.078;-0.058;2023-08-07T04:39:21;101691.35;;;10.72;100.00
56070;BME280;41944;52.078;-0.058;2023-08-07T04:41:48;101687.00;;;10.75;100.00
56070;BME280;41944;52.078;-0.058;2023-08-07T04:44:15;101692.96;;;10.80;100.00
56070;BME280;41944;52.078;-0.058;2023-08-07T04:46:42;101688.85;;;10.79;100.00
56070;BME280;41944;52.078;-0.058;2023-08-07T04:49:09;101688.12;;;10.76;100.00
56070;BME280;41944;52.078;-0.058;2023-08-07T04:51:36;101687.79;;;10.76;100.00
56070;BME280;41944;52.078;-0.058;2023-08-07T04:54:04;101688.81;;;10.83;100.00
56070;BME280;41944;52.078;-0.058;2023-08-07T04:56:31;101688.78;;;10.99;100.00
56070;BME280;41944;52.078;-0.058;2023-08-07T04:58:58;101693.05;;;10.95;100.00
56070;BME280;41944;52.078;-0.058;2023-08-07T05:01:25;101693.46;;;11.00;100.00
56070;BME280;41944;52.078;-0.058;2023-08-07T05:03:52;101693.66;;;11.02;100.00
56070;BME280;41944;52.078;-0.058;2023-08-07T05:06:19;101690.95;;;11.02;100.00
56070;BME280;41944;52.078;-0.058;2023-08-07T05:08:46;101690.74;;;11.18;100.00
56070;BME280;41944;52.078;-0.058;2023-08-07T05:11:13;101690.02;;;11.11;100.00
56070;BME280;41944;52.078;-0.058;2023-08-07T05:13:40;101690.89;;;11.11;100.00
56070;BME280;41944;52.078;-0.058;2023-08-07T05:16:07;101687.88;;;11.13;100.00
56070;BME280;41944;52.078;-0.058;2023-08-07T05:18:35;101689.82;;;11.19;100.00
56070;BME280;41944;52.078;-0.058;2023-08-07T05:21:03;101688.80;;;11.10;100.00
56070;BME280;41944;52.078;-0.058;2023-08-07T05:23:30;101692.04;;;11.22;100.00
56070;BME280;41944;52.078;-0.058;2023-08-07T05:25:57;101689.27;;;11.34;100.00
56070;BME280;41944;52.078;-0.058;2023-08-07T05:28:23;101691.45;;;11.31;100.00
56070;BME280;41944;52.078;-0.058;2023-08-07T05:30:50;101691.44;;;11.32;100.00
56070;BME280;41944;52.078;-0.058;2023-08-07T05:33:17;101687.40;;;11.48;100.00
56070;BME280;41944;52.078;-0.058;2023-08-07T05:35:44;101688.00;;;11.51;100.00
56070;BME280;41944;52.078;-0.058;2023-08-07T05:38:11;101687.33;;;11.53;100.00
56070;BME280;41944;52.078;-0.058;2023-08-07T05:40:38;101686.67;;;11.77;100.00
56070;BME280;41944;52.078;-0.058;2023-08-07T05:43:05;101682.88;;;11.88;100.00
56070;BME280;41944;52.078;-0.058;2023-08-07T05:45:33;101679.29;;;12.11;100.00
56070;BME280;41944;52.078;-0.058;2023-08-07T05:47:59;101679.20;;;12.34;100.00
56070;BME280;41944;52.078;-0.058;2023-08-07T05:50:26;101680.91;;;12.45;100.00
56070;BME280;41944;52.078;-0.058;2023-08-07T05:52:53;101677.93;;;12.46;100.00
56070;BME280;41944;52.078;-0.058;2023-08-07T05:55:20;101674.38;;;12.52;100.00
56070;BME280;41944;52.078;-0.058;2023-08-07T05:57:47;101669.52;;;12.65;100.00
56070;BME280;41944;52.078;-0.058;2023-08-07T06:00:15;101671.53;;;12.81;100.00
56070;BME280;41944;52.078;-0.058;2023-08-07T06:02:42;101673.12;;;13.12;100.00
56070;BME280;41944;52.078;-0.058;2023-08-07T06:05:10;101669.77;;;13.26;100.00
56070;BME280;41944;52.078;-0.058;2023-08-07T06:07:37;101668.62;;;13.43;100.00
56070;BME280;41944;52.078;-0.058;2023-08-07T06:10:05;101668.59;;;13.36;100.00
56070;BME280;41944;52.078;-0.058;2023-08-07T06:12:32;101668.67;;;13.69;100.00
56070;BME280;41944;52.078;-0.058;2023-08-07T06:14:59;101662.83;;;13.90;100.00
56070;BME280;41944;52.078;-0.058;2023-08-07T06:17:27;101667.76;;;14.19;99.15
56070;BME280;41944;52.078;-0.058;2023-08-07T06:19:54;101666.21;;;14.19;99.12
56070;BME280;41944;52.078;-0.058;2023-08-07T06:22:21;101666.47;;;14.21;99.27
56070;BME280;41944;52.078;-0.058;2023-08-07T06:24:48;101665.70;;;14.29;98.68
56070;BME280;41944;52.078;-0.058;2023-08-07T06:27:14;101665.34;;;14.47;98.30
56070;BME280;41944;52.078;-0.058;2023-08-07T06:29:41;101670.08;;;14.47;98.25
56070;BME280;41944;52.078;-0.058;2023-08-07T06:32:08;101672.74;;;14.48;98.56
56070;BME280;41944;52.078;-0.058;2023-08-07T06:34:36;101677.81;;;14.56;99.00
56070;BME280;41944;52.078;-0.058;2023-08-07T06:37:03;101675.11;;;14.68;98.24
56070;BME280;41944;52.078;-0.058;2023-08-07T06:39:30;101677.90;;;14.94;96.03
56070;BME280;41944;52.078;-0.058;2023-08-07T06:41:57;101677.03;;;15.02;95.29
56070;BME280;41944;52.078;-0.058;2023-08-07T06:44:24;101676.83;;;15.13;94.34
56070;BME280;41944;52.078;-0.058;2023-08-07T06:46:51;101685.05;;;15.21;95.06
56070;BME280;41944;52.078;-0.058;2023-08-07T06:49:18;101688.14;;;15.32;93.57
56070;BME280;41944;52.078;-0.058;2023-08-07T06:51:45;101685.06;;;15.28;94.42
56070;BME280;41944;52.078;-0.058;2023-08-07T06:54:11;101685.58;;;15.39;93.86
56070;BME280;41944;52.078;-0.058;2023-08-07T06:56:38;101685.08;;;15.61;91.82
56070;BME280;41944;52.078;-0.058;2023-08-07T06:59:06;101683.54;;;15.53;92.79
56070;BME280;41944;52.078;-0.058;2023-08-07T07:01:33;101687.08;;;15.73;91.12
56070;BME280;41944;52.078;-0.058;2023-08-07T07:04:00;101685.40;;;15.77;91.58
56070;BME280;41944;52.078;-0.058;2023-08-07T07:06:27;101684.50;;;16.07;89.92
56070;BME280;41944;52.078;-0.058;2023-08-07T07:08:54;101685.08;;;16.17;89.47
56070;BME280;41944;52.078;-0.058;2023-08-07T07:11:21;101689.65;;;16.23;87.87
56070;BME280;41944;52.078;-0.058;2023-08-07T07:13:49;101693.82;;;16.39;87.24
56070;BME280;41944;52.078;-0.058;2023-08-07T07:16:18;101689.18;;;16.44;87.14
56070;BME280;41944;52.078;-0.058;2023-08-07T07:18:45;101688.72;;;16.32;87.22
56070;BME280;41944;52.078;-0.058;2023-08-07T07:21:12;101684.62;;;16.50;86.20
56070;BME280;41944;52.078;-0.058;2023-08-07T07:23:39;101683.71;;;16.53;85.67
56070;BME280;41944;52.078;-0.058;2023-08-07T07:26:06;101682.23;;;16.73;86.01
56070;BME280;41944;52.078;-0.058;2023-08-07T07:28:34;101684.03;;;16.92;84.46
56070;BME280;41944;52.078;-0.058;2023-08-07T07:31:00;101678.76;;;16.94;82.74
56070;BME280;41944;52.078;-0.058;2023-08-07T07:33:27;101673.79;;;16.97;82.57
56070;BME280;41944;52.078;-0.058;2023-08-07T07:35:54;101678.18;;;17.12;83.13
56070;BME280;41944;52.078;-0.058;2023-08-07T07:38:21;101682.36;;;17.17;82.98
56070;BME280;41944;52.078;-0.058;2023-08-07T07:40:48;101687.39;;;17.15;83.32
56070;BME280;41944;52.078;-0.058;2023-08-07T07:43:15;101688.05;;;17.37;82.04
56070;BME280;41944;52.078;-0.058;2023-08-07T07:45:44;101684.21;;;17.43;80.67
56070;BME280;41944;52.078;-0.058;2023-08-07T07:48:10;101680.06;;;17.61;79.00
56070;BME280;41944;52.078;-0.058;2023-08-07T07:50:38;101678.62;;;17.64;79.22
56070;BME280;41944;52.078;-0.058;2023-08-07T07:53:06;101677.33;;;17.69;79.04
56070;BME280;41944;52.078;-0.058;2023-08-07T07:55:33;101679.24;;;17.72;79.88
56070;BME280;41944;52.078;-0.058;2023-08-07T07:58:00;101683.02;;;17.82;78.91
56070;BME280;41944;52.078;-0.058;2023-08-07T08:00:27;101678.42;;;18.00;76.49
56070;BME280;41944;52.078;-0.058;2023-08-07T08:02:54;101677.87;;;18.06;76.02
56070;BME280;41944;52.078;-0.058;2023-08-07T08:05:22;101672.08;;;18.16;75.37
56070;BME280;41944;52.078;-0.058;2023-08-07T08:07:49;101669.48;;;18.09;75.66
56070;BME280;41944;52.078;-0.058;2023-08-07T08:10:16;101670.83;;;18.10;77.27
56070;BME280;41944;52.078;-0.058;2023-08-07T08:12:44;101661.85;;;18.25;73.62
56070;BME280;41944;52.078;-0.058;2023-08-07T08:15:11;101667.98;;;18.28;74.11
56070;BME280;41944;52.078;-0.058;2023-08-07T08:17:38;101672.37;;;18.17;73.96
56070;BME280;41944;52.078;-0.058;2023-08-07T08:20:06;101676.55;;;18.03;74.98
56070;BME280;41944;52.078;-0.058;2023-08-07T08:22:34;101669.85;;;18.11;74.88
56070;BME280;41944;52.078;-0.058;2023-08-07T08:25:01;101672.75;;;18.25;74.89
56070;BME280;41944;52.078;-0.058;2023-08-07T08:27:28;101673.33;;;18.35;74.10
56070;BME280;41944;52.078;-0.058;2023-08-07T08:29:55;101677.05;;;18.45;73.89
56070;BME280;41944;52.078;-0.058;2023-08-07T08:32:22;101675.76;;;18.70;71.92
56070;BME280;41944;52.078;-0.058;2023-08-07T08:34:49;101675.98;;;18.84;72.24
56070;BME280;41944;52.078;-0.058;2023-08-07T08:37:17;101677.44;;;18.97;70.52
56070;BME280;41944;52.078;-0.058;2023-08-07T08:39:45;101682.11;;;19.06;71.95
56070;BME280;41944;52.078;-0.058;2023-08-07T08:42:12;101682.65;;;19.24;70.71
56070;BME280;41944;52.078;-0.058;2023-08-07T08:44:40;101682.32;;;19.39;69.41
56070;BME280;41944;52.078;-0.058;2023-08-07T08:47:09;101680.19;;;19.32;69.50
56070;BME280;41944;52.078;-0.058;2023-08-07T08:49:42;101688.22;;;19.29;68.32
56070;BME280;41944;52.078;-0.058;2023-08-07T08:52:10;101680.34;;;19.10;69.91
56070;BME280;41944;52.078;-0.058;2023-08-07T08:54:38;101672.45;;;19.19;68.44
56070;BME280;41944;52.078;-0.058;2023-08-07T08:57:07;101673.88;;;19.21;68.43
56070;BME280;41944;52.078;-0.058;2023-08-07T08:59:34;101679.99;;;19.04;68.45
56070;BME280;41944;52.078;-0.058;2023-08-07T09:02:02;101676.56;;;18.98;68.80
56070;BME280;41944;52.078;-0.058;2023-08-07T09:04:31;101676.72;;;19.08;69.66
56070;BME280;41944;52.078;-0.058;2023-08-07T09:06:58;101675.18;;;19.34;70.38
56070;BME280;41944;52.078;-0.058;2023-08-07T09:09:26;101675.96;;;19.44;68.25
56070;BME280;41944;52.078;-0.058;2023-08-07T09:11:55;101680.21;;;19.54;67.36
56070;BME280;41944;52.078;-0.058;2023-08-07T09:14:27;101679.98;;;19.57;67.36
56070;BME280;41944;52.078;-0.058;2023-08-07T09:16:55;101686.76;;;19.66;67.38
56070;BME280;41944;52.078;-0.058;2023-08-07T09:19:24;101678.27;;;19.85;67.36
56070;BME280;41944;52.078;-0.058;2023-08-07T09:21:52;101675.11;;;19.80;65.80
56070;BME280;41944;52.078;-0.058;2023-08-07T09:24:20;101679.13;;;19.68;66.21
56070;BME280;41944;52.078;-0.058;2023-08-07T09:26:47;101672.50;;;19.68;65.26
56070;BME280;41944;52.078;-0.058;2023-08-07T09:29:14;101675.59;;;19.69;66.73
56070;BME280;41944;52.078;-0.058;2023-08-07T09:31:43;101673.75;;;19.89;64.95
56070;BME280;41944;52.078;-0.058;2023-08-07T09:34:11;101672.81;;;20.09;64.64
56070;BME280;41944;52.078;-0.058;2023-08-07T09:36:37;101677.95;;;20.32;62.55
56070;BME280;41944;52.078;-0.058;2023-08-07T09:39:05;101675.09;;;20.38;64.61
56070;BME280;41944;52.078;-0.058;2023-08-07T09:41:32;101675.57;;;20.45;62.47
56070;BME280;41944;52.078;-0.058;2023-08-07T09:44:05;101682.51;;;20.46;61.77
56070;BME280;41944;52.078;-0.058;2023-08-07T09:46:41;101679.65;;;20.55;61.07
56070;BME280;41944;52.078;-0.058;2023-08-07T09:49:08;101674.00;;;20.65;61.03
56070;BME280;41944;52.078;-0.058;2023-08-07T09:51:42;101671.07;;;20.67;61.05
56070;BME280;41944;52.078;-0.058;2023-08-07T09:54:09;101666.46;;;20.78;59.74
56070;BME280;41944;52.078;-0.058;2023-08-07T09:56:37;101666.39;;;20.58;58.56
56070;BME280;41944;52.078;-0.058;2023-08-07T09:59:05;101670.84;;;20.35;59.96
56070;BME280;41944;52.078;-0.058;2023-08-07T10:01:32;101662.92;;;20.32;61.13
56070;BME280;41944;52.078;-0.058;2023-08-07T10:04:00;101662.73;;;20.27;61.98
56070;BME280;41944;52.078;-0.058;2023-08-07T10:06:27;101662.28;;;20.59;61.46
56070;BME280;41944;52.078;-0.058;2023-08-07T10:08:54;101664.89;;;20.83;59.95
56070;BME280;41944;52.078;-0.058;2023-08-07T10:11:22;101664.77;;;20.87;58.51
56070;BME280;41944;52.078;-0.058;2023-08-07T10:13:50;101665.30;;;20.84;58.10
56070;BME280;41944;52.078;-0.058;2023-08-07T10:16:17;101666.65;;;20.94;57.40
56070;BME280;41944;52.078;-0.058;2023-08-07T10:18:44;101659.18;;;20.91;58.58
56070;BME280;41944;52.078;-0.058;2023-08-07T10:21:11;101657.18;;;21.09;57.07
56070;BME280;41944;52.078;-0.058;2023-08-07T10:23:39;101653.00;;;21.24;56.38
56070;BME280;41944;52.078;-0.058;2023-08-07T10:26:09;101650.74;;;21.41;55.80
56070;BME280;41944;52.078;-0.058;2023-08-07T10:28:40;101647.24;;;21.51;53.63
56070;BME280;41944;52.078;-0.058;2023-08-07T10:31:09;101643.16;;;21.48;53.09
56070;BME280;41944;52.078;-0.058;2023-08-07T10:33:38;101648.13;;;21.57;53.99
56070;BME280;41944;52.078;-0.058;2023-08-07T10:36:09;101644.48;;;21.61;53.72
56070;BME280;41944;52.078;-0.058;2023-08-07T10:38:36;101642.55;;;21.94;53.10
56070;BME280;41944;52.078;-0.058;2023-08-07T10:41:08;101641.50;;;22.07;52.98
56070;BME280;41944;52.078;-0.058;2023-08-07T10:43:39;101638.50;;;22.25;53.23
56070;BME280;41944;52.078;-0.058;2023-08-07T10:46:10;101635.31;;;22.30;51.78
56070;BME280;41944;52.078;-0.058;2023-08-07T10:48:39;101630.00;;;22.25;51.02
56070;BME280;41944;52.078;-0.058;2023-08-07T10:51:07;101633.14;;;22.62;51.64
56070;BME280;41944;52.078;-0.058;2023-08-07T10:53:35;101628.78;;;22.76;51.40
56070;BME280;41944;52.078;-0.058;2023-08-07T10:56:04;101632.06;;;22.93;48.97
56070;BME280;41944;52.078;-0.058;2023-08-07T10:58:34;101633.57;;;23.06;49.09
56070;BME280;41944;52.078;-0.058;2023-08-07T11:01:41;101626.40;;;22.69;48.60
56070;BME280;41944;52.078;-0.058;2023-08-07T11:04:10;101627.48;;;22.83;50.71
56070;BME280;41944;52.078;-0.058;2023-08-07T11:06:39;101629.46;;;22.88;48.51
56070;BME280;41944;52.078;-0.058;2023-08-07T11:09:08;101628.79;;;23.10;49.86
56070;BME280;41944;52.078;-0.058;2023-08-07T11:11:37;101626.48;;;23.16;48.59
56070;BME280;41944;52.078;-0.058;2023-08-07T11:14:05;101623.82;;;23.08;46.47
56070;BME280;41944;52.078;-0.058;2023-08-07T11:16:34;101619.19;;;22.90;46.41
56070;BME280;41944;52.078;-0.058;2023-08-07T11:19:02;101615.90;;;22.82;47.17
56070;BME280;41944;52.078;-0.058;2023-08-07T11:21:31;101617.43;;;22.85;45.86
56070;BME280;41944;52.078;-0.058;2023-08-07T11:23:58;101619.06;;;22.84;47.12
56070;BME280;41944;52.078;-0.058;2023-08-07T11:26:26;101621.92;;;22.69;47.84
56070;BME280;41944;52.078;-0.058;2023-08-07T11:28:53;101618.54;;;22.32;47.02
56070;BME280;41944;52.078;-0.058;2023-08-07T11:31:21;101612.68;;;22.07;48.26
56070;BME280;41944;52.078;-0.058;2023-08-07T11:33:50;101613.42;;;22.08;48.06
56070;BME280;41944;52.078;-0.058;2023-08-07T11:36:18;101613.55;;;22.06;49.30
56070;BME280;41944;52.078;-0.058;2023-08-07T11:38:46;101611.03;;;22.06;48.19
56070;BME280;41944;52.078;-0.058;2023-08-07T11:41:15;101606.52;;;22.02;48.40
56070;BME280;41944;52.078;-0.058;2023-08-07T11:43:42;101601.23;;;22.17;49.96
56070;BME280;41944;52.078;-0.058;2023-08-07T11:46:12;101596.63;;;22.31;46.93
56070;BME280;41944;52.078;-0.058;2023-08-07T11:48:42;101585.84;;;22.62;48.51
56070;BME280;41944;52.078;-0.058;2023-08-07T11:51:10;101587.17;;;22.89;46.93
56070;BME280;41944;52.078;-0.058;2023-08-07T11:53:39;101589.88;;;23.09;47.21
56070;BME280;41944;52.078;-0.058;2023-08-07T11:56:07;101592.24;;;22.90;47.77
56070;BME280;41944;52.078;-0.058;2023-08-07T11:58:36;101585.62;;;22.54;48.34
56070;BME280;41944;52.078;-0.058;2023-08-07T12:01:05;101579.03;;;22.50;48.80
56070;BME280;41944;52.078;-0.058;2023-08-07T12:03:35;101573.90;;;22.37;49.27
56070;BME280;41944;52.078;-0.058;2023-08-07T12:06:04;101570.94;;;22.41;47.96
56070;BME280;41944;52.078;-0.058;2023-08-07T12:08:32;101574.95;;;22.29;50.30
56070;BME280;41944;52.078;-0.058;2023-08-07T12:11:02;101572.56;;;22.26;48.04
56070;BME280;41944;52.078;-0.058;2023-08-07T12:13:29;101572.52;;;22.45;48.48
56070;BME280;41944;52.078;-0.058;2023-08-07T12:15:57;101573.22;;;22.41;49.03
56070;BME280;41944;52.078;-0.058;2023-08-07T12:18:27;101568.31;;;22.47;49.12
56070;BME280;41944;52.078;-0.058;2023-08-07T12:20:57;101568.01;;;22.50;48.09
56070;BME280;41944;52.078;-0.058;2023-08-07T12:23:25;101564.21;;;22.47;47.85
56070;BME280;41944;52.078;-0.058;2023-08-07T12:25:53;101564.99;;;22.34;48.58
56070;BME280;41944;52.078;-0.058;2023-08-07T12:28:21;101562.73;;;22.49;49.09
56070;BME280;41944;52.078;-0.058;2023-08-07T12:30:49;101565.13;;;22.66;48.11
56070;BME280;41944;52.078;-0.058;2023-08-07T12:33:17;101566.67;;;22.81;46.09
56070;BME280;41944;52.078;-0.058;2023-08-07T12:35:45;101570.84;;;23.02;46.29
56070;BME280;41944;52.078;-0.058;2023-08-07T12:38:12;101570.27;;;23.06;46.71